sensor_id;sensor_type;location;lat;lon;timestamp;P1;durP1;ratioP1;P2;durP2;ratioP2
74658;SDS011;63186;51.204;6.536;2024-03-02T00:00:57;4.88;;;1.25;;
74658;SDS011;63186;51.204;6.536;2024-03-02T00:03:25;2.20;;;1.02;;
74658;SDS011;63186;51.204;6.536;2024-03-02T00:05:51;7.03;;;1.35;;
74658;SDS011;63186;51.204;6.536;2024-03-02T00:08:23;1.27;;;1.10;;
74658;SDS011;63186;51.204;6.536;2024-03-02T00:10:56;3.63;;;1.40;;
74658;SDS011;63186;51.204;6.536;2024-03-02T00:13:22;4.32;;;1.50;;
74658;SDS011;63186;51.204;6.536;2024-03-02T00:15:56;2.92;;;1.38;;
74658;SDS011;63186;51.204;6.536;2024-03-02T00:18:26;4.85;;;1.50;;
74658;SDS011;63186;51.204;6.536;2024-03-02T00:20:55;2.60;;;1.58;;
74658;SDS011;63186;51.204;6.536;2024-03-02T00:23:21;2.65;;;1.27;;
74658;SDS011;63186;51.204;6.536;2024-03-02T00:25:52;3.10;;;1.48;;
74658;SDS011;63186;51.204;6.536;2024-03-02T00:28:33;4.00;;;1.27;;
74658;SDS011;63186;51.204;6.536;2024-03-02T00:31:06;4.72;;;1.23;;
74658;SDS011;63186;51.204;6.536;2024-03-02T00:33:37;4.22;;;1.23;;
74658;SDS011;63186;51.204;6.536;2024-03-02T00:36:04;2.58;;;1.20;;
74658;SDS011;63186;51.204;6.536;2024-03-02T00:38:31;2.60;;;1.20;;
74658;SDS011;63186;51.204;6.536;2024-03-02T00:41:40;2.22;;;1.25;;
74658;SDS011;63186;51.204;6.536;2024-03-02T00:43:58;1.38;;;1.02;;
74658;SDS011;63186;51.204;6.536;2024-03-02T00:46:30;2.63;;;1.33;;
74658;SDS011;63186;51.204;6.536;2024-03-02T00:48:59;3.92;;;1.20;;
74658;SDS011;63186;51.204;6.536;2024-03-02T00:51:26;2.22;;;1.40;;
74658;SDS011;63186;51.204;6.536;2024-03-02T00:53:54;2.67;;;1.45;;
74658;SDS011;63186;51.204;6.536;2024-03-02T00:56:21;3.70;;;1.20;;
74658;SDS011;63186;51.204;6.536;2024-03-02T00:58:47;2.90;;;1.75;;
74658;SDS011;63186;51.204;6.536;2024-03-02T01:01:13;2.65;;;1.45;;
74658;SDS011;63186;51.204;6.536;2024-03-02T01:03:38;5.13;;;2.00;;
74658;SDS011;63186;51.204;6.536;2024-03-02T01:06:04;5.18;;;1.92;;
74658;SDS011;63186;51.204;6.536;2024-03-02T01:08:30;4.72;;;1.98;;
74658;SDS011;63186;51.204;6.536;2024-03-02T01:10:55;2.53;;;1.48;;
74658;SDS011;63186;51.204;6.536;2024-03-02T01:13:21;4.03;;;1.67;;
74658;SDS011;63186;51.204;6.536;2024-03-02T01:15:48;4.60;;;1.98;;
74658;SDS011;63186;51.204;6.536;2024-03-02T01:18:13;8.10;;;1.95;;
74658;SDS011;63186;51.204;6.536;2024-03-02T01:20:39;4.20;;;1.83;;
74658;SDS011;63186;51.204;6.536;2024-03-02T01:23:04;4.27;;;1.60;;
74658;SDS011;63186;51.204;6.536;2024-03-02T01:25:29;3.80;;;1.43;;
74658;SDS011;63186;51.204;6.536;2024-03-02T01:27:55;4.18;;;1.92;;
74658;SDS011;63186;51.204;6.536;2024-03-02T01:30:20;4.07;;;1.50;;
74658;SDS011;63186;51.204;6.536;2024-03-02T01:32:46;4.57;;;2.05;;
74658;SDS011;63186;51.204;6.536;2024-03-02T01:35:11;2.58;;;1.52;;
74658;SDS011;63186;51.204;6.536;2024-03-02T01:37:37;5.45;;;2.05;;
74658;SDS011;63186;51.204;6.536;2024-03-02T01:40:02;2.47;;;1.43;;
74658;SDS011;63186;51.204;6.536;2024-03-02T01:42:28;2.67;;;1.20;;
74658;SDS011;63186;51.204;6.536;2024-03-02T01:44:54;5.28;;;1.73;;
74658;SDS011;63186;51.204;6.536;2024-03-02T01:47:19;3.85;;;1.60;;
74658;SDS011;63186;51.204;6.536;2024-03-02T01:49:44;3.70;;;1.80;;
74658;SDS011;63186;51.204;6.536;2024-03-02T01:52:10;4.40;;;1.40;;
74658;SDS011;63186;51.204;6.536;2024-03-02T01:54:36;4.38;;;1.60;;
74658;SDS011;63186;51.204;6.536;2024-03-02T01:57:01;2.07;;;1.30;;
74658;SDS011;63186;51.204;6.536;2024-03-02T01:59:26;3.73;;;1.50;;
74658;SDS011;63186;51.204;6.536;2024-03-02T02:01:52;4.95;;;1.70;;
74658;SDS011;63186;51.204;6.536;2024-03-02T02:04:17;3.33;;;1.60;;
74658;SDS011;63186;51.204;6.536;2024-03-02T02:06:46;6.40;;;2.00;;
74658;SDS011;63186;51.204;6.536;2024-03-02T02:09:11;5.85;;;1.90;;
74658;SDS011;63186;51.204;6.536;2024-03-02T02:11:36;3.08;;;1.35;;
74658;SDS011;63186;51.204;6.536;2024-03-02T02:14:02;5.00;;;1.90;;
74658;SDS011;63186;51.204;6.536;2024-03-02T02:16:27;3.30;;;1.60;;
74658;SDS011;63186;51.204;6.536;2024-03-02T02:18:52;3.60;;;1.37;;
74658;SDS011;63186;51.204;6.536;2024-03-02T02:21:21;5.93;;;2.25;;
74658;SDS011;63186;51.204;6.536;2024-03-02T02:23:50;2.60;;;1.45;;
74658;SDS011;63186;51.204;6.536;2024-03-02T02:26:15;4.57;;;1.87;;
74658;SDS011;63186;51.204;6.536;2024-03-02T02:28:41;3.45;;;1.58;;
74658;SDS011;63186;51.204;6.536;2024-03-02T02:31:14;3.60;;;1.33;;
74658;SDS011;63186;51.204;6.536;2024-03-02T02:33:40;4.63;;;1.60;;
74658;SDS011;63186;51.204;6.536;2024-03-02T02:36:05;4.00;;;1.40;;
74658;SDS011;63186;51.204;6.536;2024-03-02T02:38:31;4.10;;;1.80;;
74658;SDS011;63186;51.204;6.536;2024-03-02T02:40:58;4.53;;;1.50;;
74658;SDS011;63186;51.204;6.536;2024-03-02T02:43:23;3.65;;;1.33;;
74658;SDS011;63186;51.204;6.536;2024-03-02T02:45:48;5.27;;;1.70;;
74658;SDS011;63186;51.204;6.536;2024-03-02T02:48:14;3.03;;;1.08;;
74658;SDS011;63186;51.204;6.536;2024-03-02T02:50:39;3.22;;;1.15;;
74658;SDS011;63186;51.204;6.536;2024-03-02T02:53:05;2.87;;;1.20;;
74658;SDS011;63186;51.204;6.536;2024-03-02T02:55:31;2.67;;;1.27;;
74658;SDS011;63186;51.204;6.536;2024-03-02T02:57:56;2.35;;;0.88;;
74658;SDS011;63186;51.204;6.536;2024-03-02T03:00:21;2.07;;;1.10;;
74658;SDS011;63186;51.204;6.536;2024-03-02T03:02:48;1.90;;;1.42;;
74658;SDS011;63186;51.204;6.536;2024-03-02T03:05:14;2.05;;;0.70;;
74658;SDS011;63186;51.204;6.536;2024-03-02T03:07:40;1.35;;;0.80;;
74658;SDS011;63186;51.204;6.536;2024-03-02T03:10:06;0.50;;;0.50;;
74658;SDS011;63186;51.204;6.536;2024-03-02T03:12:32;2.13;;;0.93;;
74658;SDS011;63186;51.204;6.536;2024-03-02T03:15:00;2.63;;;0.93;;
74658;SDS011;63186;51.204;6.536;2024-03-02T03:17:26;1.40;;;0.65;;
74658;SDS011;63186;51.204;6.536;2024-03-02T03:19:52;1.20;;;0.60;;
74658;SDS011;63186;51.204;6.536;2024-03-02T03:22:18;0.40;;;0.38;;
74658;SDS011;63186;51.204;6.536;2024-03-02T03:24:43;4.20;;;0.88;;
74658;SDS011;63186;51.204;6.536;2024-03-02T03:27:09;0.50;;;0.37;;
74658;SDS011;63186;51.204;6.536;2024-03-02T03:29:36;0.43;;;0.30;;
74658;SDS011;63186;51.204;6.536;2024-03-02T03:32:01;2.17;;;0.57;;
74658;SDS011;63186;51.204;6.536;2024-03-02T03:34:27;3.45;;;0.57;;
74658;SDS011;63186;51.204;6.536;2024-03-02T03:36:54;0.40;;;0.30;;
74658;SDS011;63186;51.204;6.536;2024-03-02T03:39:19;0.47;;;0.40;;
74658;SDS011;63186;51.204;6.536;2024-03-02T03:41:45;0.30;;;0.30;;
74658;SDS011;63186;51.204;6.536;2024-03-02T03:44:10;0.65;;;0.40;;
74658;SDS011;63186;51.204;6.536;2024-03-02T03:46:35;0.43;;;0.30;;
74658;SDS011;63186;51.204;6.536;2024-03-02T03:49:01;1.38;;;0.30;;
74658;SDS011;63186;51.204;6.536;2024-03-02T03:51:27;0.68;;;0.68;;
74658;SDS011;63186;51.204;6.536;2024-03-02T03:53:52;3.03;;;0.60;;
74658;SDS011;63186;51.204;6.536;2024-03-02T03:56:17;1.42;;;0.50;;
74658;SDS011;63186;51.204;6.536;2024-03-02T03:58:42;0.60;;;0.60;;
74658;SDS011;63186;51.204;6.536;2024-03-02T04:01:08;0.43;;;0.43;;
74658;SDS011;63186;51.204;6.536;2024-03-02T04:03:33;0.40;;;0.40;;
74658;SDS011;63186;51.204;6.536;2024-03-02T04:05:58;0.57;;;0.57;;
74658;SDS011;63186;51.204;6.536;2024-03-02T04:08:24;1.20;;;0.67;;
74658;SDS011;63186;51.204;6.536;2024-03-02T04:10:49;0.77;;;0.40;;
74658;SDS011;63186;51.204;6.536;2024-03-02T04:13:15;0.30;;;0.30;;
74658;SDS011;63186;51.204;6.536;2024-03-02T04:15:40;1.23;;;0.53;;
74658;SDS011;63186;51.204;6.536;2024-03-02T04:18:05;0.52;;;0.50;;
74658;SDS011;63186;51.204;6.536;2024-03-02T04:20:31;1.17;;;0.85;;
74658;SDS011;63186;51.204;6.536;2024-03-02T04:22:56;0.77;;;0.55;;
74658;SDS011;63186;51.204;6.536;2024-03-02T04:25:22;0.40;;;0.40;;
74658;SDS011;63186;51.204;6.536;2024-03-02T04:27:47;2.97;;;0.73;;
74658;SDS011;63186;51.204;6.536;2024-03-02T04:30:13;0.57;;;0.30;;
74658;SDS011;63186;51.204;6.536;2024-03-02T04:32:38;2.72;;;1.00;;
74658;SDS011;63186;51.204;6.536;2024-03-02T04:35:04;1.33;;;1.10;;
74658;SDS011;63186;51.204;6.536;2024-03-02T04:37:31;0.63;;;0.50;;
74658;SDS011;63186;51.204;6.536;2024-03-02T04:39:58;2.80;;;0.65;;
74658;SDS011;63186;51.204;6.536;2024-03-02T04:42:23;0.87;;;0.50;;
74658;SDS011;63186;51.204;6.536;2024-03-02T04:44:49;2.67;;;0.70;;
74658;SDS011;63186;51.204;6.536;2024-03-02T04:47:14;0.60;;;0.32;;
74658;SDS011;63186;51.204;6.536;2024-03-02T04:49:40;1.20;;;0.63;;
74658;SDS011;63186;51.204;6.536;2024-03-02T04:52:05;0.73;;;0.60;;
74658;SDS011;63186;51.204;6.536;2024-03-02T04:54:30;1.60;;;0.70;;
74658;SDS011;63186;51.204;6.536;2024-03-02T04:56:56;0.97;;;0.70;;
74658;SDS011;63186;51.204;6.536;2024-03-02T04:59:21;0.67;;;0.60;;
74658;SDS011;63186;51.204;6.536;2024-03-02T05:01:47;2.42;;;0.93;;
74658;SDS011;63186;51.204;6.536;2024-03-02T05:04:12;0.85;;;0.65;;
74658;SDS011;63186;51.204;6.536;2024-03-02T05:06:38;0.95;;;0.80;;
74658;SDS011;63186;51.204;6.536;2024-03-02T05:09:07;2.05;;;0.80;;
74658;SDS011;63186;51.204;6.536;2024-03-02T05:11:34;1.00;;;0.65;;
74658;SDS011;63186;51.204;6.536;2024-03-02T05:14:03;1.33;;;0.70;;
74658;SDS011;63186;51.204;6.536;2024-03-02T05:16:28;1.52;;;0.90;;
74658;SDS011;63186;51.204;6.536;2024-03-02T05:18:54;0.93;;;0.70;;
74658;SDS011;63186;51.204;6.536;2024-03-02T05:21:19;2.07;;;0.70;;
74658;SDS011;63186;51.204;6.536;2024-03-02T05:23:45;1.65;;;0.65;;
74658;SDS011;63186;51.204;6.536;2024-03-02T05:26:10;4.53;;;1.17;;
74658;SDS011;63186;51.204;6.536;2024-03-02T05:28:38;2.40;;;1.20;;
74658;SDS011;63186;51.204;6.536;2024-03-02T05:31:03;1.23;;;0.82;;
74658;SDS011;63186;51.204;6.536;2024-03-02T05:33:29;2.70;;;1.00;;
74658;SDS011;63186;51.204;6.536;2024-03-02T05:35:56;2.65;;;1.10;;
74658;SDS011;63186;51.204;6.536;2024-03-02T05:38:21;3.22;;;1.23;;
74658;SDS011;63186;51.204;6.536;2024-03-02T05:40:47;1.90;;;1.10;;
74658;SDS011;63186;51.204;6.536;2024-03-02T05:43:12;3.55;;;1.27;;
74658;SDS011;63186;51.204;6.536;2024-03-02T05:45:38;2.80;;;1.20;;
74658;SDS011;63186;51.204;6.536;2024-03-02T05:48:04;4.72;;;1.40;;
74658;SDS011;63186;51.204;6.536;2024-03-02T05:50:30;2.35;;;1.27;;
74658;SDS011;63186;51.204;6.536;2024-03-02T05:52:56;2.80;;;1.13;;
74658;SDS011;63186;51.204;6.536;2024-03-02T05:55:21;1.58;;;1.17;;
74658;SDS011;63186;51.204;6.536;2024-03-02T05:57:47;2.15;;;1.10;;
74658;SDS011;63186;51.204;6.536;2024-03-02T06:00:24;2.55;;;1.10;;
74658;SDS011;63186;51.204;6.536;2024-03-02T06:02:49;1.50;;;1.02;;
74658;SDS011;63186;51.204;6.536;2024-03-02T06:05:15;2.08;;;1.30;;
74658;SDS011;63186;51.204;6.536;2024-03-02T06:07:41;3.30;;;1.33;;
74658;SDS011;63186;51.204;6.536;2024-03-02T06:10:08;3.65;;;1.40;;
74658;SDS011;63186;51.204;6.536;2024-03-02T06:12:33;2.63;;;1.40;;
74658;SDS011;63186;51.204;6.536;2024-03-02T06:14:59;2.83;;;1.70;;
74658;SDS011;63186;51.204;6.536;2024-03-02T06:17:24;5.13;;;1.73;;
74658;SDS011;63186;51.204;6.536;2024-03-02T06:19:50;1.67;;;1.13;;
74658;SDS011;63186;51.204;6.536;2024-03-02T06:22:15;2.73;;;1.50;;
74658;SDS011;63186;51.204;6.536;2024-03-02T06:24:40;3.53;;;1.30;;
74658;SDS011;63186;51.204;6.536;2024-03-02T06:27:06;2.33;;;1.10;;
74658;SDS011;63186;51.204;6.536;2024-03-02T06:29:34;4.00;;;1.33;;
74658;SDS011;63186;51.204;6.536;2024-03-02T06:31:59;2.55;;;1.10;;
74658;SDS011;63186;51.204;6.536;2024-03-02T06:34:25;4.97;;;1.35;;
74658;SDS011;63186;51.204;6.536;2024-03-02T06:36:50;4.35;;;1.15;;
74658;SDS011;63186;51.204;6.536;2024-03-02T06:39:15;2.23;;;1.20;;
74658;SDS011;63186;51.204;6.536;2024-03-02T06:41:41;2.87;;;1.20;;
74658;SDS011;63186;51.204;6.536;2024-03-02T06:44:07;4.35;;;2.25;;
74658;SDS011;63186;51.204;6.536;2024-03-02T06:46:32;2.50;;;1.25;;
74658;SDS011;63186;51.204;6.536;2024-03-02T06:48:58;2.05;;;1.17;;
74658;SDS011;63186;51.204;6.536;2024-03-02T06:51:23;1.97;;;1.20;;
74658;SDS011;63186;51.204;6.536;2024-03-02T06:53:48;4.53;;;1.17;;
74658;SDS011;63186;51.204;6.536;2024-03-02T06:56:14;2.58;;;1.15;;
74658;SDS011;63186;51.204;6.536;2024-03-02T06:58:39;2.40;;;1.10;;
74658;SDS011;63186;51.204;6.536;2024-03-02T07:01:04;3.43;;;1.47;;
74658;SDS011;63186;51.204;6.536;2024-03-02T07:03:30;1.83;;;1.30;;
74658;SDS011;63186;51.204;6.536;2024-03-02T07:05:55;2.35;;;1.13;;
74658;SDS011;63186;51.204;6.536;2024-03-02T07:08:20;2.47;;;0.90;;
74658;SDS011;63186;51.204;6.536;2024-03-02T07:10:46;2.53;;;1.30;;
74658;SDS011;63186;51.204;6.536;2024-03-02T07:13:12;1.67;;;1.15;;
74658;SDS011;63186;51.204;6.536;2024-03-02T07:15:38;2.65;;;1.27;;
74658;SDS011;63186;51.204;6.536;2024-03-02T07:18:32;2.05;;;1.00;;
74658;SDS011;63186;51.204;6.536;2024-03-02T07:20:58;2.00;;;1.30;;
74658;SDS011;63186;51.204;6.536;2024-03-02T07:23:25;2.03;;;1.13;;
74658;SDS011;63186;51.204;6.536;2024-03-02T07:25:55;1.83;;;0.98;;
74658;SDS011;63186;51.204;6.536;2024-03-02T07:28:21;2.70;;;1.67;;
74658;SDS011;63186;51.204;6.536;2024-03-02T07:30:47;1.85;;;1.10;;
74658;SDS011;63186;51.204;6.536;2024-03-02T07:33:23;1.40;;;0.90;;
74658;SDS011;63186;51.204;6.536;2024-03-02T07:35:48;1.43;;;0.83;;
74658;SDS011;63186;51.204;6.536;2024-03-02T07:38:13;2.83;;;0.80;;
74658;SDS011;63186;51.204;6.536;2024-03-02T07:40:39;2.40;;;0.93;;
74658;SDS011;63186;51.204;6.536;2024-03-02T07:43:04;2.37;;;1.33;;
74658;SDS011;63186;51.204;6.536;2024-03-02T07:45:29;1.27;;;0.73;;
74658;SDS011;63186;51.204;6.536;2024-03-02T07:47:55;1.87;;;0.90;;
74658;SDS011;63186;51.204;6.536;2024-03-02T07:50:21;1.95;;;1.00;;
74658;SDS011;63186;51.204;6.536;2024-03-02T07:52:47;2.67;;;1.03;;
74658;SDS011;63186;51.204;6.536;2024-03-02T07:55:12;0.70;;;0.70;;
74658;SDS011;63186;51.204;6.536;2024-03-02T07:57:37;1.10;;;0.80;;
74658;SDS011;63186;51.204;6.536;2024-03-02T08:00:03;3.05;;;1.08;;
74658;SDS011;63186;51.204;6.536;2024-03-02T08:02:29;1.10;;;0.77;;
74658;SDS011;63186;51.204;6.536;2024-03-02T08:04:55;2.10;;;0.97;;
74658;SDS011;63186;51.204;6.536;2024-03-02T08:07:20;1.80;;;0.90;;
74658;SDS011;63186;51.204;6.536;2024-03-02T08:09:45;4.18;;;1.50;;
74658;SDS011;63186;51.204;6.536;2024-03-02T08:12:11;1.50;;;1.00;;
74658;SDS011;63186;51.204;6.536;2024-03-02T08:14:36;2.60;;;0.80;;
74658;SDS011;63186;51.204;6.536;2024-03-02T08:17:01;3.77;;;1.27;;
74658;SDS011;63186;51.204;6.536;2024-03-02T08:19:27;3.53;;;0.88;;
74658;SDS011;63186;51.204;6.536;2024-03-02T08:21:52;3.55;;;1.20;;
74658;SDS011;63186;51.204;6.536;2024-03-02T08:24:17;1.77;;;1.00;;
74658;SDS011;63186;51.204;6.536;2024-03-02T08:26:43;2.17;;;1.35;;
74658;SDS011;63186;51.204;6.536;2024-03-02T08:29:08;3.28;;;1.10;;
74658;SDS011;63186;51.204;6.536;2024-03-02T08:31:33;2.60;;;1.10;;
74658;SDS011;63186;51.204;6.536;2024-03-02T08:33:59;2.33;;;0.93;;
74658;SDS011;63186;51.204;6.536;2024-03-02T08:36:25;2.88;;;1.33;;
74658;SDS011;63186;51.204;6.536;2024-03-02T08:38:50;1.92;;;1.00;;
74658;SDS011;63186;51.204;6.536;2024-03-02T08:41:16;2.35;;;0.95;;
74658;SDS011;63186;51.204;6.536;2024-03-02T08:43:42;3.20;;;1.33;;
74658;SDS011;63186;51.204;6.536;2024-03-02T08:46:08;3.05;;;1.60;;
74658;SDS011;63186;51.204;6.536;2024-03-02T08:48:33;4.20;;;1.50;;
74658;SDS011;63186;51.204;6.536;2024-03-02T08:50:59;2.38;;;1.20;;
74658;SDS011;63186;51.204;6.536;2024-03-02T08:53:24;2.28;;;1.30;;
74658;SDS011;63186;51.204;6.536;2024-03-02T08:55:50;3.07;;;1.27;;
74658;SDS011;63186;51.204;6.536;2024-03-02T08:58:15;2.92;;;1.40;;
74658;SDS011;63186;51.204;6.536;2024-03-02T09:00:41;3.63;;;1.30;;
74658;SDS011;63186;51.204;6.536;2024-03-02T09:03:07;3.10;;;1.33;;
74658;SDS011;63186;51.204;6.536;2024-03-02T09:05:32;2.80;;;1.23;;
74658;SDS011;63186;51.204;6.536;2024-03-02T09:07:58;2.95;;;1.10;;
74658;SDS011;63186;51.204;6.536;2024-03-02T09:10:23;7.00;;;1.20;;
74658;SDS011;63186;51.204;6.536;2024-03-02T09:12:48;2.77;;;1.20;;
74658;SDS011;63186;51.204;6.536;2024-03-02T09:15:13;1.23;;;0.80;;
74658;SDS011;63186;51.204;6.536;2024-03-02T09:17:39;3.45;;;1.00;;
74658;SDS011;63186;51.204;6.536;2024-03-02T09:20:05;1.75;;;1.10;;
74658;SDS011;63186;51.204;6.536;2024-03-02T09:22:31;1.85;;;1.10;;
74658;SDS011;63186;51.204;6.536;2024-03-02T09:24:57;2.45;;;0.95;;
74658;SDS011;63186;51.204;6.536;2024-03-02T09:27:23;2.33;;;1.08;;
74658;SDS011;63186;51.204;6.536;2024-03-02T09:29:48;3.37;;;1.67;;
74658;SDS011;63186;51.204;6.536;2024-03-02T09:32:13;1.00;;;0.90;;
74658;SDS011;63186;51.204;6.536;2024-03-02T09:34:39;1.23;;;0.80;;
74658;SDS011;63186;51.204;6.536;2024-03-02T09:37:04;3.67;;;1.08;;
74658;SDS011;63186;51.204;6.536;2024-03-02T09:39:30;1.97;;;0.90;;
74658;SDS011;63186;51.204;6.536;2024-03-02T09:41:55;1.63;;;1.13;;
74658;SDS011;63186;51.204;6.536;2024-03-02T09:44:21;0.85;;;0.82;;
74658;SDS011;63186;51.204;6.536;2024-03-02T09:46:50;1.95;;;0.80;;
74658;SDS011;63186;51.204;6.536;2024-03-02T09:49:16;1.45;;;0.73;;
74658;SDS011;63186;51.204;6.536;2024-03-02T09:51:46;2.78;;;0.63;;
74658;SDS011;63186;51.204;6.536;2024-03-02T09:54:13;2.92;;;0.82;;
74658;SDS011;63186;51.204;6.536;2024-03-02T09:56:40;1.55;;;0.82;;
74658;SDS011;63186;51.204;6.536;2024-03-02T09:59:05;3.57;;;0.93;;
74658;SDS011;63186;51.204;6.536;2024-03-02T10:01:31;4.47;;;0.93;;
74658;SDS011;63186;51.204;6.536;2024-03-02T10:03:58;2.30;;;1.08;;
74658;SDS011;63186;51.204;6.536;2024-03-02T10:08:51;1.45;;;0.80;;
74658;SDS011;63186;51.204;6.536;2024-03-02T10:11:33;1.65;;;0.60;;
74658;SDS011;63186;51.204;6.536;2024-03-02T10:14:08;3.15;;;0.90;;
74658;SDS011;63186;51.204;6.536;2024-03-02T10:16:38;0.95;;;0.63;;
74658;SDS011;63186;51.204;6.536;2024-03-02T10:19:14;3.03;;;0.90;;
74658;SDS011;63186;51.204;6.536;2024-03-02T10:21:40;2.40;;;0.65;;
74658;SDS011;63186;51.204;6.536;2024-03-02T10:24:08;2.28;;;0.70;;
74658;SDS011;63186;51.204;6.536;2024-03-02T10:26:34;1.63;;;0.82;;
74658;SDS011;63186;51.204;6.536;2024-03-02T10:28:59;1.37;;;0.70;;
74658;SDS011;63186;51.204;6.536;2024-03-02T10:31:24;1.38;;;0.80;;
74658;SDS011;63186;51.204;6.536;2024-03-02T10:33:53;1.55;;;0.63;;
74658;SDS011;63186;51.204;6.536;2024-03-02T10:36:20;1.98;;;0.52;;
74658;SDS011;63186;51.204;6.536;2024-03-02T10:38:46;2.05;;;0.80;;
74658;SDS011;63186;51.204;6.536;2024-03-02T10:41:16;1.30;;;0.60;;
74658;SDS011;63186;51.204;6.536;2024-03-02T10:43:43;1.30;;;0.63;;
74658;SDS011;63186;51.204;6.536;2024-03-02T10:46:08;3.53;;;0.63;;
74658;SDS011;63186;51.204;6.536;2024-03-02T10:48:36;1.92;;;0.68;;
74658;SDS011;63186;51.204;6.536;2024-03-02T10:51:04;1.23;;;0.70;;
74658;SDS011;63186;51.204;6.536;2024-03-02T10:53:29;0.37;;;0.37;;
74658;SDS011;63186;51.204;6.536;2024-03-02T10:55:57;1.50;;;0.80;;
74658;SDS011;63186;51.204;6.536;2024-03-02T10:58:28;2.03;;;0.70;;
74658;SDS011;63186;51.204;6.536;2024-03-02T11:00:57;3.85;;;0.98;;
74658;SDS011;63186;51.204;6.536;2024-03-02T11:03:27;2.05;;;0.73;;
74658;SDS011;63186;51.204;6.536;2024-03-02T11:05:55;1.70;;;1.00;;
74658;SDS011;63186;51.204;6.536;2024-03-02T11:08:23;1.67;;;0.80;;
74658;SDS011;63186;51.204;6.536;2024-03-02T11:10:50;1.38;;;0.70;;
74658;SDS011;63186;51.204;6.536;2024-03-02T11:13:22;4.85;;;0.90;;
74658;SDS011;63186;51.204;6.536;2024-03-02T11:15:49;1.65;;;0.68;;
74658;SDS011;63186;51.204;6.536;2024-03-02T11:18:20;1.95;;;0.70;;
74658;SDS011;63186;51.204;6.536;2024-03-02T11:20:45;3.97;;;0.70;;
74658;SDS011;63186;51.204;6.536;2024-03-02T11:23:11;1.00;;;0.57;;
74658;SDS011;63186;51.204;6.536;2024-03-02T11:25:37;0.83;;;0.83;;
74658;SDS011;63186;51.204;6.536;2024-03-02T11:28:04;2.03;;;0.73;;
74658;SDS011;63186;51.204;6.536;2024-03-02T11:32:59;1.63;;;0.60;;
74658;SDS011;63186;51.204;6.536;2024-03-02T11:35:35;1.00;;;0.40;;
74658;SDS011;63186;51.204;6.536;2024-03-02T11:38:02;2.20;;;0.65;;
74658;SDS011;63186;51.204;6.536;2024-03-02T11:40:28;1.73;;;0.60;;
74658;SDS011;63186;51.204;6.536;2024-03-02T11:42:55;1.60;;;0.40;;
74658;SDS011;63186;51.204;6.536;2024-03-02T11:45:24;0.77;;;0.57;;
74658;SDS011;63186;51.204;6.536;2024-03-02T11:47:51;3.60;;;0.80;;
74658;SDS011;63186;51.204;6.536;2024-03-02T11:50:35;2.20;;;0.70;;
74658;SDS011;63186;51.204;6.536;2024-03-02T11:53:08;1.67;;;0.68;;
74658;SDS011;63186;51.204;6.536;2024-03-02T11:55:35;2.70;;;0.60;;
74658;SDS011;63186;51.204;6.536;2024-03-02T11:58:04;1.80;;;0.68;;
74658;SDS011;63186;51.204;6.536;2024-03-02T12:00:30;0.90;;;0.70;;
74658;SDS011;63186;51.204;6.536;2024-03-02T12:03:02;2.00;;;0.70;;
74658;SDS011;63186;51.204;6.536;2024-03-02T12:05:31;2.03;;;0.57;;
74658;SDS011;63186;51.204;6.536;2024-03-02T12:07:58;1.75;;;0.70;;
74658;SDS011;63186;51.204;6.536;2024-03-02T12:10:24;2.50;;;0.80;;
74658;SDS011;63186;51.204;6.536;2024-03-02T12:13:00;3.58;;;0.80;;
74658;SDS011;63186;51.204;6.536;2024-03-02T12:15:30;0.60;;;0.60;;
74658;SDS011;63186;51.204;6.536;2024-03-02T12:17:58;3.05;;;0.98;;
74658;SDS011;63186;51.204;6.536;2024-03-02T12:20:25;1.90;;;0.60;;
74658;SDS011;63186;51.204;6.536;2024-03-02T12:22:51;2.75;;;0.60;;
74658;SDS011;63186;51.204;6.536;2024-03-02T12:25:17;0.88;;;0.70;;
74658;SDS011;63186;51.204;6.536;2024-03-02T12:27:44;2.67;;;0.85;;
74658;SDS011;63186;51.204;6.536;2024-03-02T12:30:11;4.07;;;0.98;;
74658;SDS011;63186;51.204;6.536;2024-03-02T12:32:37;0.93;;;0.55;;
74658;SDS011;63186;51.204;6.536;2024-03-02T12:35:04;1.98;;;0.50;;
74658;SDS011;63186;51.204;6.536;2024-03-02T12:37:30;1.00;;;0.65;;
74658;SDS011;63186;51.204;6.536;2024-03-02T12:39:56;1.67;;;0.95;;
74658;SDS011;63186;51.204;6.536;2024-03-02T12:42:21;3.47;;;1.52;;
74658;SDS011;63186;51.204;6.536;2024-03-02T12:44:47;0.90;;;0.70;;
74658;SDS011;63186;51.204;6.536;2024-03-02T12:47:12;1.00;;;0.60;;
74658;SDS011;63186;51.204;6.536;2024-03-02T12:49:39;2.33;;;0.90;;
74658;SDS011;63186;51.204;6.536;2024-03-02T12:52:05;1.05;;;0.95;;
74658;SDS011;63186;51.204;6.536;2024-03-02T12:54:31;2.05;;;0.95;;
74658;SDS011;63186;51.204;6.536;2024-03-02T12:56:58;3.25;;;0.82;;
74658;SDS011;63186;51.204;6.536;2024-03-02T12:59:24;2.42;;;0.90;;
74658;SDS011;63186;51.204;6.536;2024-03-02T13:01:51;1.30;;;0.75;;
74658;SDS011;63186;51.204;6.536;2024-03-02T13:04:21;2.03;;;0.82;;
74658;SDS011;63186;51.204;6.536;2024-03-02T13:06:48;3.72;;;1.00;;
74658;SDS011;63186;51.204;6.536;2024-03-02T13:09:14;3.20;;;0.98;;
74658;SDS011;63186;51.204;6.536;2024-03-02T13:11:41;1.48;;;0.80;;
74658;SDS011;63186;51.204;6.536;2024-03-02T13:14:07;2.60;;;0.95;;
74658;SDS011;63186;51.204;6.536;2024-03-02T13:16:37;1.73;;;1.10;;
74658;SDS011;63186;51.204;6.536;2024-03-02T13:19:04;1.77;;;0.80;;
74658;SDS011;63186;51.204;6.536;2024-03-02T13:21:29;2.30;;;0.80;;
74658;SDS011;63186;51.204;6.536;2024-03-02T13:23:54;1.37;;;0.93;;
74658;SDS011;63186;51.204;6.536;2024-03-02T13:26:19;2.20;;;0.97;;
74658;SDS011;63186;51.204;6.536;2024-03-02T13:28:45;1.77;;;0.95;;
74658;SDS011;63186;51.204;6.536;2024-03-02T13:31:10;2.10;;;0.90;;
74658;SDS011;63186;51.204;6.536;2024-03-02T13:33:36;1.48;;;0.80;;
74658;SDS011;63186;51.204;6.536;2024-03-02T13:36:02;2.93;;;1.30;;
74658;SDS011;63186;51.204;6.536;2024-03-02T13:38:27;2.10;;;1.13;;
74658;SDS011;63186;51.204;6.536;2024-03-02T13:40:53;1.58;;;0.95;;
74658;SDS011;63186;51.204;6.536;2024-03-02T13:43:18;2.80;;;1.30;;
74658;SDS011;63186;51.204;6.536;2024-03-02T13:45:44;3.50;;;1.20;;
74658;SDS011;63186;51.204;6.536;2024-03-02T13:48:10;1.80;;;0.90;;
74658;SDS011;63186;51.204;6.536;2024-03-02T13:50:35;1.77;;;1.13;;
74658;SDS011;63186;51.204;6.536;2024-03-02T13:53:00;2.43;;;1.07;;
74658;SDS011;63186;51.204;6.536;2024-03-02T13:55:26;4.53;;;1.58;;
74658;SDS011;63186;51.204;6.536;2024-03-02T13:57:51;2.20;;;1.10;;
74658;SDS011;63186;51.204;6.536;2024-03-02T14:00:17;2.30;;;1.20;;
74658;SDS011;63186;51.204;6.536;2024-03-02T14:02:43;2.25;;;1.33;;
74658;SDS011;63186;51.204;6.536;2024-03-02T14:05:08;2.28;;;1.08;;
74658;SDS011;63186;51.204;6.536;2024-03-02T14:07:37;2.03;;;0.98;;
74658;SDS011;63186;51.204;6.536;2024-03-02T14:10:02;2.50;;;1.30;;
74658;SDS011;63186;51.204;6.536;2024-03-02T14:12:28;1.63;;;1.00;;
74658;SDS011;63186;51.204;6.536;2024-03-02T14:14:53;2.43;;;1.00;;
74658;SDS011;63186;51.204;6.536;2024-03-02T14:17:23;2.75;;;1.10;;
74658;SDS011;63186;51.204;6.536;2024-03-02T14:19:48;2.15;;;1.05;;
74658;SDS011;63186;51.204;6.536;2024-03-02T14:22:13;2.47;;;1.23;;
74658;SDS011;63186;51.204;6.536;2024-03-02T14:24:42;2.03;;;1.00;;
74658;SDS011;63186;51.204;6.536;2024-03-02T14:27:08;2.83;;;1.13;;
74658;SDS011;63186;51.204;6.536;2024-03-02T14:29:33;1.92;;;0.90;;
74658;SDS011;63186;51.204;6.536;2024-03-02T14:32:01;1.13;;;0.85;;
74658;SDS011;63186;51.204;6.536;2024-03-02T14:34:28;2.08;;;1.05;;
74658;SDS011;63186;51.204;6.536;2024-03-02T14:36:53;1.27;;;0.90;;
74658;SDS011;63186;51.204;6.536;2024-03-02T14:39:18;1.85;;;1.10;;
74658;SDS011;63186;51.204;6.536;2024-03-02T14:41:44;2.13;;;0.80;;
74658;SDS011;63186;51.204;6.536;2024-03-02T14:44:10;1.52;;;0.85;;
74658;SDS011;63186;51.204;6.536;2024-03-02T14:46:35;1.33;;;0.90;;
74658;SDS011;63186;51.204;6.536;2024-03-02T14:49:01;1.70;;;1.00;;